sensor_id;sensor_type;location;lat;lon;timestamp;P1;durP1;ratioP1;P2;durP2;ratioP2
9836;SDS011;4957;51.412;6.724;2022-11-20T00:01:47;19.57;;;11.53;;
9836;SDS011;4957;51.412;6.724;2022-11-20T00:04:13;18.87;;;11.67;;
9836;SDS011;4957;51.412;6.724;2022-11-20T00:06:39;25.13;;;12.63;;
9836;SDS011;4957;51.412;6.724;2022-11-20T00:09:04;19.87;;;12.53;;
9836;SDS011;4957;51.412;6.724;2022-11-20T00:11:30;30.33;;;13.03;;
9836;SDS011;4957;51.412;6.724;2022-11-20T00:13:58;21.70;;;12.87;;
9836;SDS011;4957;51.412;6.724;2022-11-20T00:16:26;23.27;;;13.30;;
9836;SDS011;4957;51.412;6.724;2022-11-20T00:18:53;19.17;;;12.37;;
9836;SDS011;4957;51.412;6.724;2022-11-20T00:21:23;18.37;;;11.67;;
9836;SDS011;4957;51.412;6.724;2022-11-20T00:23:50;21.80;;;12.87;;
9836;SDS011;4957;51.412;6.724;2022-11-20T00:26:18;21.73;;;13.27;;
9836;SDS011;4957;51.412;6.724;2022-11-20T00:28:48;20.83;;;12.50;;
9836;SDS011;4957;51.412;6.724;2022-11-20T00:31:16;21.00;;;13.27;;
9836;SDS011;4957;51.412;6.724;2022-11-20T00:33:42;20.70;;;13.07;;
9836;SDS011;4957;51.412;6.724;2022-11-20T00:36:14;21.43;;;13.03;;
9836;SDS011;4957;51.412;6.724;2022-11-20T00:38:42;18.63;;;12.07;;
9836;SDS011;4957;51.412;6.724;2022-11-20T00:41:09;22.80;;;13.30;;
9836;SDS011;4957;51.412;6.724;2022-11-20T00:43:36;24.60;;;13.93;;
9836;SDS011;4957;51.412;6.724;2022-11-20T00:46:18;22.33;;;13.27;;
9836;SDS011;4957;51.412;6.724;2022-11-20T00:48:46;18.80;;;12.57;;
9836;SDS011;4957;51.412;6.724;2022-11-20T00:51:12;26.00;;;14.00;;
9836;SDS011;4957;51.412;6.724;2022-11-20T00:53:39;27.03;;;14.53;;
9836;SDS011;4957;51.412;6.724;2022-11-20T00:56:06;22.33;;;13.23;;
9836;SDS011;4957;51.412;6.724;2022-11-20T00:58:35;22.50;;;13.53;;
9836;SDS011;4957;51.412;6.724;2022-11-20T01:01:13;21.73;;;13.57;;
9836;SDS011;4957;51.412;6.724;2022-11-20T01:03:40;23.87;;;13.47;;
9836;SDS011;4957;51.412;6.724;2022-11-20T01:06:11;22.70;;;13.60;;
9836;SDS011;4957;51.412;6.724;2022-11-20T01:08:44;24.07;;;14.13;;
9836;SDS011;4957;51.412;6.724;2022-11-20T01:11:12;21.37;;;13.17;;
9836;SDS011;4957;51.412;6.724;2022-11-20T01:13:39;25.47;;;14.17;;
9836;SDS011;4957;51.412;6.724;2022-11-20T01:16:10;22.50;;;13.80;;
9836;SDS011;4957;51.412;6.724;2022-11-20T01:18:39;24.67;;;13.43;;
9836;SDS011;4957;51.412;6.724;2022-11-20T01:21:10;22.30;;;12.43;;
9836;SDS011;4957;51.412;6.724;2022-11-20T01:23:39;23.33;;;13.17;;
9836;SDS011;4957;51.412;6.724;2022-11-20T01:26:07;23.70;;;14.70;;
9836;SDS011;4957;51.412;6.724;2022-11-20T01:28:36;24.87;;;14.87;;
9836;SDS011;4957;51.412;6.724;2022-11-20T01:31:10;24.47;;;14.53;;
9836;SDS011;4957;51.412;6.724;2022-11-20T01:33:44;24.90;;;14.50;;
9836;SDS011;4957;51.412;6.724;2022-11-20T01:36:11;28.70;;;14.30;;
9836;SDS011;4957;51.412;6.724;2022-11-20T01:38:37;24.70;;;14.63;;
9836;SDS011;4957;51.412;6.724;2022-11-20T01:41:03;25.37;;;15.00;;
9836;SDS011;4957;51.412;6.724;2022-11-20T01:43:29;30.30;;;17.00;;
9836;SDS011;4957;51.412;6.724;2022-11-20T01:49:00;26.50;;;15.57;;
9836;SDS011;4957;51.412;6.724;2022-11-20T01:51:35;26.47;;;16.03;;
9836;SDS011;4957;51.412;6.724;2022-11-20T01:54:06;32.27;;;17.67;;
9836;SDS011;4957;51.412;6.724;2022-11-20T01:56:37;28.20;;;16.30;;
9836;SDS011;4957;51.412;6.724;2022-11-20T01:59:06;28.10;;;15.97;;
9836;SDS011;4957;51.412;6.724;2022-11-20T02:01:33;31.20;;;17.03;;
9836;SDS011;4957;51.412;6.724;2022-11-20T02:03:59;27.20;;;16.33;;
9836;SDS011;4957;51.412;6.724;2022-11-20T02:06:26;23.30;;;15.43;;
9836;SDS011;4957;51.412;6.724;2022-11-20T02:09:00;22.83;;;14.60;;
9836;SDS011;4957;51.412;6.724;2022-11-20T02:11:26;28.53;;;15.17;;
9836;SDS011;4957;51.412;6.724;2022-11-20T02:13:52;27.57;;;16.40;;
9836;SDS011;4957;51.412;6.724;2022-11-20T02:16:26;28.00;;;16.23;;
9836;SDS011;4957;51.412;6.724;2022-11-20T02:18:55;29.60;;;16.03;;
9836;SDS011;4957;51.412;6.724;2022-11-20T02:26:30;23.77;;;14.57;;
9836;SDS011;4957;51.412;6.724;2022-11-20T02:28:58;26.63;;;16.47;;
9836;SDS011;4957;51.412;6.724;2022-11-20T02:31:25;26.43;;;16.53;;
9836;SDS011;4957;51.412;6.724;2022-11-20T02:33:57;30.23;;;17.33;;
9836;SDS011;4957;51.412;6.724;2022-11-20T02:36:23;32.17;;;18.47;;
9836;SDS011;4957;51.412;6.724;2022-11-20T02:38:52;37.83;;;19.87;;
9836;SDS011;4957;51.412;6.724;2022-11-20T02:41:18;29.17;;;18.13;;
9836;SDS011;4957;51.412;6.724;2022-11-20T02:43:43;28.60;;;18.33;;
9836;SDS011;4957;51.412;6.724;2022-11-20T02:46:09;29.63;;;18.63;;
9836;SDS011;4957;51.412;6.724;2022-11-20T02:48:35;32.60;;;19.23;;
9836;SDS011;4957;51.412;6.724;2022-11-20T02:51:01;32.70;;;17.70;;
9836;SDS011;4957;51.412;6.724;2022-11-20T02:53:26;35.40;;;18.90;;
9836;SDS011;4957;51.412;6.724;2022-11-20T02:55:52;30.40;;;17.07;;
9836;SDS011;4957;51.412;6.724;2022-11-20T02:58:18;23.73;;;14.93;;
9836;SDS011;4957;51.412;6.724;2022-11-20T03:00:43;31.77;;;18.80;;
9836;SDS011;4957;51.412;6.724;2022-11-20T03:03:09;35.13;;;18.93;;
9836;SDS011;4957;51.412;6.724;2022-11-20T03:05:35;31.87;;;19.27;;
9836;SDS011;4957;51.412;6.724;2022-11-20T03:08:00;45.33;;;22.03;;
9836;SDS011;4957;51.412;6.724;2022-11-20T03:10:26;34.33;;;20.10;;
9836;SDS011;4957;51.412;6.724;2022-11-20T03:12:52;35.83;;;18.87;;
9836;SDS011;4957;51.412;6.724;2022-11-20T03:15:19;38.67;;;20.97;;
9836;SDS011;4957;51.412;6.724;2022-11-20T03:17:45;39.47;;;21.83;;
9836;SDS011;4957;51.412;6.724;2022-11-20T03:20:10;42.93;;;20.43;;
9836;SDS011;4957;51.412;6.724;2022-11-20T03:22:36;45.17;;;20.43;;
9836;SDS011;4957;51.412;6.724;2022-11-20T03:25:02;37.40;;;20.60;;
9836;SDS011;4957;51.412;6.724;2022-11-20T03:27:31;41.17;;;20.23;;
9836;SDS011;4957;51.412;6.724;2022-11-20T03:29:58;38.60;;;20.40;;
9836;SDS011;4957;51.412;6.724;2022-11-20T03:32:24;37.33;;;21.77;;
9836;SDS011;4957;51.412;6.724;2022-11-20T03:34:49;39.67;;;20.50;;
9836;SDS011;4957;51.412;6.724;2022-11-20T03:37:15;38.27;;;20.27;;
9836;SDS011;4957;51.412;6.724;2022-11-20T03:39:41;30.20;;;18.00;;
9836;SDS011;4957;51.412;6.724;2022-11-20T03:42:06;35.33;;;19.43;;
9836;SDS011;4957;51.412;6.724;2022-11-20T03:44:53;31.57;;;17.33;;
9836;SDS011;4957;51.412;6.724;2022-11-20T03:47:19;34.37;;;19.70;;
9836;SDS011;4957;51.412;6.724;2022-11-20T03:49:45;31.53;;;17.97;;
9836;SDS011;4957;51.412;6.724;2022-11-20T03:52:10;31.77;;;18.37;;
9836;SDS011;4957;51.412;6.724;2022-11-20T03:54:36;29.67;;;18.60;;
9836;SDS011;4957;51.412;6.724;2022-11-20T03:57:02;28.93;;;17.53;;
9836;SDS011;4957;51.412;6.724;2022-11-20T03:59:27;33.90;;;19.20;;
9836;SDS011;4957;51.412;6.724;2022-11-20T04:01:53;29.97;;;18.07;;
9836;SDS011;4957;51.412;6.724;2022-11-20T04:04:19;29.87;;;18.37;;
9836;SDS011;4957;51.412;6.724;2022-11-20T04:06:44;30.40;;;18.10;;
9836;SDS011;4957;51.412;6.724;2022-11-20T04:09:10;32.07;;;19.37;;
9836;SDS011;4957;51.412;6.724;2022-11-20T04:11:36;30.67;;;18.57;;
9836;SDS011;4957;51.412;6.724;2022-11-20T04:14:05;29.97;;;18.80;;
9836;SDS011;4957;51.412;6.724;2022-11-20T04:16:36;29.83;;;17.83;;
9836;SDS011;4957;51.412;6.724;2022-11-20T04:19:03;31.00;;;17.97;;
9836;SDS011;4957;51.412;6.724;2022-11-20T04:21:30;32.87;;;19.47;;
9836;SDS011;4957;51.412;6.724;2022-11-20T04:23:56;30.80;;;19.03;;
9836;SDS011;4957;51.412;6.724;2022-11-20T04:26:23;28.13;;;17.93;;
9836;SDS011;4957;51.412;6.724;2022-11-20T04:28:50;31.30;;;19.00;;
9836;SDS011;4957;51.412;6.724;2022-11-20T04:31:17;28.93;;;17.30;;
9836;SDS011;4957;51.412;6.724;2022-11-20T04:33:45;29.50;;;19.03;;
9836;SDS011;4957;51.412;6.724;2022-11-20T04:36:13;33.30;;;19.50;;
9836;SDS011;4957;51.412;6.724;2022-11-20T04:38:43;34.93;;;20.60;;
9836;SDS011;4957;51.412;6.724;2022-11-20T04:41:13;34.70;;;20.87;;
9836;SDS011;4957;51.412;6.724;2022-11-20T04:43:41;33.17;;;21.47;;
9836;SDS011;4957;51.412;6.724;2022-11-20T04:46:10;33.97;;;21.77;;
9836;SDS011;4957;51.412;6.724;2022-11-20T04:48:36;39.70;;;23.53;;
9836;SDS011;4957;51.412;6.724;2022-11-20T04:51:04;37.00;;;22.47;;
9836;SDS011;4957;51.412;6.724;2022-11-20T04:53:30;38.60;;;22.70;;
9836;SDS011;4957;51.412;6.724;2022-11-20T04:56:07;39.13;;;23.77;;
9836;SDS011;4957;51.412;6.724;2022-11-20T04:58:34;34.90;;;22.47;;
9836;SDS011;4957;51.412;6.724;2022-11-20T05:01:04;38.60;;;22.60;;
9836;SDS011;4957;51.412;6.724;2022-11-20T05:03:37;38.77;;;23.03;;
9836;SDS011;4957;51.412;6.724;2022-11-20T05:06:04;38.17;;;22.17;;
9836;SDS011;4957;51.412;6.724;2022-11-20T05:08:31;38.10;;;22.40;;
9836;SDS011;4957;51.412;6.724;2022-11-20T05:11:04;35.97;;;21.27;;
9836;SDS011;4957;51.412;6.724;2022-11-20T05:13:31;35.87;;;20.50;;
9836;SDS011;4957;51.412;6.724;2022-11-20T05:16:06;35.43;;;23.00;;
9836;SDS011;4957;51.412;6.724;2022-11-20T05:18:36;42.73;;;22.13;;
9836;SDS011;4957;51.412;6.724;2022-11-20T05:21:03;34.90;;;21.70;;
9836;SDS011;4957;51.412;6.724;2022-11-20T05:23:30;36.83;;;20.90;;
9836;SDS011;4957;51.412;6.724;2022-11-20T05:25:57;35.60;;;21.97;;
9836;SDS011;4957;51.412;6.724;2022-11-20T05:28:23;35.30;;;20.90;;
9836;SDS011;4957;51.412;6.724;2022-11-20T05:30:49;33.90;;;21.07;;
9836;SDS011;4957;51.412;6.724;2022-11-20T05:33:15;34.20;;;20.67;;
9836;SDS011;4957;51.412;6.724;2022-11-20T05:35:41;36.23;;;22.77;;
9836;SDS011;4957;51.412;6.724;2022-11-20T05:38:07;40.33;;;21.80;;
9836;SDS011;4957;51.412;6.724;2022-11-20T05:40:33;34.73;;;21.90;;
9836;SDS011;4957;51.412;6.724;2022-11-20T05:42:59;37.90;;;21.50;;
9836;SDS011;4957;51.412;6.724;2022-11-20T05:45:25;32.50;;;19.43;;
9836;SDS011;4957;51.412;6.724;2022-11-20T05:47:51;36.00;;;21.53;;
9836;SDS011;4957;51.412;6.724;2022-11-20T05:50:16;38.27;;;22.20;;
9836;SDS011;4957;51.412;6.724;2022-11-20T05:52:42;35.50;;;20.33;;
9836;SDS011;4957;51.412;6.724;2022-11-20T05:55:08;32.57;;;20.43;;
9836;SDS011;4957;51.412;6.724;2022-11-20T05:57:34;42.63;;;22.73;;
9836;SDS011;4957;51.412;6.724;2022-11-20T06:00:00;37.97;;;22.37;;
9836;SDS011;4957;51.412;6.724;2022-11-20T06:02:26;35.43;;;21.07;;
9836;SDS011;4957;51.412;6.724;2022-11-20T06:04:51;35.27;;;21.00;;
9836;SDS011;4957;51.412;6.724;2022-11-20T06:07:17;33.00;;;20.93;;
9836;SDS011;4957;51.412;6.724;2022-11-20T06:09:42;30.87;;;20.80;;
9836;SDS011;4957;51.412;6.724;2022-11-20T06:12:08;30.57;;;19.20;;
9836;SDS011;4957;51.412;6.724;2022-11-20T06:14:34;42.30;;;22.23;;
9836;SDS011;4957;51.412;6.724;2022-11-20T06:16:59;39.23;;;22.30;;
9836;SDS011;4957;51.412;6.724;2022-11-20T06:19:25;35.80;;;21.80;;
9836;SDS011;4957;51.412;6.724;2022-11-20T06:21:51;32.63;;;21.07;;
9836;SDS011;4957;51.412;6.724;2022-11-20T06:24:17;33.90;;;20.77;;
9836;SDS011;4957;51.412;6.724;2022-11-20T06:26:43;31.87;;;20.50;;
9836;SDS011;4957;51.412;6.724;2022-11-20T06:29:09;34.70;;;20.80;;
9836;SDS011;4957;51.412;6.724;2022-11-20T06:31:35;38.43;;;22.10;;
9836;SDS011;4957;51.412;6.724;2022-11-20T06:34:03;32.90;;;20.60;;
9836;SDS011;4957;51.412;6.724;2022-11-20T06:36:30;24.03;;;16.43;;
9836;SDS011;4957;51.412;6.724;2022-11-20T06:38:56;32.23;;;21.00;;
9836;SDS011;4957;51.412;6.724;2022-11-20T06:41:22;30.73;;;20.13;;
9836;SDS011;4957;51.412;6.724;2022-11-20T06:43:48;34.40;;;19.90;;
9836;SDS011;4957;51.412;6.724;2022-11-20T06:46:14;31.37;;;19.83;;
9836;SDS011;4957;51.412;6.724;2022-11-20T06:48:44;31.50;;;20.23;;
9836;SDS011;4957;51.412;6.724;2022-11-20T06:51:10;36.77;;;19.83;;
9836;SDS011;4957;51.412;6.724;2022-11-20T06:53:37;33.17;;;21.93;;
9836;SDS011;4957;51.412;6.724;2022-11-20T06:56:03;33.00;;;20.87;;
9836;SDS011;4957;51.412;6.724;2022-11-20T06:58:30;28.50;;;18.07;;
9836;SDS011;4957;51.412;6.724;2022-11-20T07:01:00;32.73;;;20.53;;
9836;SDS011;4957;51.412;6.724;2022-11-20T07:03:31;35.13;;;20.73;;
9836;SDS011;4957;51.412;6.724;2022-11-20T07:05:57;28.17;;;18.80;;
9836;SDS011;4957;51.412;6.724;2022-11-20T07:08:23;37.93;;;21.17;;
9836;SDS011;4957;51.412;6.724;2022-11-20T07:10:49;36.27;;;21.23;;
9836;SDS011;4957;51.412;6.724;2022-11-20T07:13:15;31.20;;;20.50;;
9836;SDS011;4957;51.412;6.724;2022-11-20T07:15:41;33.33;;;20.40;;
9836;SDS011;4957;51.412;6.724;2022-11-20T07:18:07;32.20;;;20.50;;
9836;SDS011;4957;51.412;6.724;2022-11-20T07:20:33;36.23;;;20.87;;
9836;SDS011;4957;51.412;6.724;2022-11-20T07:22:58;35.20;;;19.97;;
9836;SDS011;4957;51.412;6.724;2022-11-20T07:25:24;33.03;;;20.27;;
9836;SDS011;4957;51.412;6.724;2022-11-20T07:27:51;33.40;;;20.13;;
9836;SDS011;4957;51.412;6.724;2022-11-20T07:30:17;36.47;;;21.83;;
9836;SDS011;4957;51.412;6.724;2022-11-20T07:32:46;38.03;;;22.10;;
9836;SDS011;4957;51.412;6.724;2022-11-20T07:35:12;36.53;;;21.83;;
9836;SDS011;4957;51.412;6.724;2022-11-20T07:37:38;38.90;;;21.73;;
9836;SDS011;4957;51.412;6.724;2022-11-20T07:40:04;31.57;;;21.07;;
9836;SDS011;4957;51.412;6.724;2022-11-20T07:42:30;38.53;;;21.10;;
9836;SDS011;4957;51.412;6.724;2022-11-20T07:44:55;38.03;;;22.87;;
9836;SDS011;4957;51.412;6.724;2022-11-20T07:47:21;37.60;;;21.93;;
9836;SDS011;4957;51.412;6.724;2022-11-20T07:49:46;38.33;;;21.97;;
9836;SDS011;4957;51.412;6.724;2022-11-20T07:52:12;34.63;;;21.70;;
9836;SDS011;4957;51.412;6.724;2022-11-20T07:54:38;35.97;;;22.17;;
9836;SDS011;4957;51.412;6.724;2022-11-20T07:57:03;38.00;;;22.90;;
9836;SDS011;4957;51.412;6.724;2022-11-20T07:59:29;25.83;;;17.20;;
9836;SDS011;4957;51.412;6.724;2022-11-20T08:01:55;35.80;;;23.20;;
9836;SDS011;4957;51.412;6.724;2022-11-20T08:04:20;37.80;;;23.23;;
9836;SDS011;4957;51.412;6.724;2022-11-20T08:06:46;37.53;;;23.17;;
9836;SDS011;4957;51.412;6.724;2022-11-20T08:09:12;32.70;;;20.30;;
9836;SDS011;4957;51.412;6.724;2022-11-20T08:11:38;36.67;;;23.33;;
9836;SDS011;4957;51.412;6.724;2022-11-20T08:14:22;34.70;;;20.63;;
9836;SDS011;4957;51.412;6.724;2022-11-20T08:16:48;38.87;;;22.50;;
9836;SDS011;4957;51.412;6.724;2022-11-20T08:19:15;36.57;;;20.93;;
9836;SDS011;4957;51.412;6.724;2022-11-20T08:21:42;32.87;;;20.43;;
9836;SDS011;4957;51.412;6.724;2022-11-20T08:24:09;31.73;;;19.97;;
9836;SDS011;4957;51.412;6.724;2022-11-20T08:26:36;33.00;;;19.87;;
9836;SDS011;4957;51.412;6.724;2022-11-20T08:29:03;33.67;;;20.40;;
9836;SDS011;4957;51.412;6.724;2022-11-20T08:31:30;33.53;;;20.73;;
9836;SDS011;4957;51.412;6.724;2022-11-20T08:33:56;34.57;;;19.10;;
9836;SDS011;4957;51.412;6.724;2022-11-20T08:36:23;35.87;;;19.50;;
9836;SDS011;4957;51.412;6.724;2022-11-20T08:38:50;31.37;;;18.47;;
9836;SDS011;4957;51.412;6.724;2022-11-20T08:41:16;33.37;;;18.47;;
9836;SDS011;4957;51.412;6.724;2022-11-20T08:43:48;30.90;;;18.03;;
9836;SDS011;4957;51.412;6.724;2022-11-20T08:46:15;32.40;;;19.13;;
9836;SDS011;4957;51.412;6.724;2022-11-20T08:48:41;32.67;;;19.07;;
9836;SDS011;4957;51.412;6.724;2022-11-20T08:51:08;31.87;;;19.13;;
9836;SDS011;4957;51.412;6.724;2022-11-20T08:53:34;30.60;;;18.57;;
9836;SDS011;4957;51.412;6.724;2022-11-20T08:55:59;35.33;;;19.70;;
9836;SDS011;4957;51.412;6.724;2022-11-20T08:58:25;33.87;;;19.43;;
9836;SDS011;4957;51.412;6.724;2022-11-20T09:00:51;32.63;;;18.37;;
9836;SDS011;4957;51.412;6.724;2022-11-20T09:03:18;31.77;;;18.60;;
9836;SDS011;4957;51.412;6.724;2022-11-20T09:05:43;27.10;;;16.40;;
9836;SDS011;4957;51.412;6.724;2022-11-20T09:08:09;27.97;;;16.93;;
9836;SDS011;4957;51.412;6.724;2022-11-20T09:10:35;28.33;;;15.50;;
9836;SDS011;4957;51.412;6.724;2022-11-20T09:13:01;23.90;;;14.30;;
9836;SDS011;4957;51.412;6.724;2022-11-20T09:15:27;27.30;;;16.20;;
9836;SDS011;4957;51.412;6.724;2022-11-20T09:17:53;27.37;;;15.90;;
9836;SDS011;4957;51.412;6.724;2022-11-20T09:20:20;25.87;;;15.27;;
9836;SDS011;4957;51.412;6.724;2022-11-20T09:22:46;23.13;;;14.93;;
9836;SDS011;4957;51.412;6.724;2022-11-20T09:25:12;24.57;;;14.57;;
9836;SDS011;4957;51.412;6.724;2022-11-20T09:27:38;25.13;;;14.87;;
9836;SDS011;4957;51.412;6.724;2022-11-20T09:30:03;24.47;;;15.13;;
9836;SDS011;4957;51.412;6.724;2022-11-20T09:32:30;28.43;;;14.17;;
9836;SDS011;4957;51.412;6.724;2022-11-20T09:34:55;25.00;;;15.10;;
9836;SDS011;4957;51.412;6.724;2022-11-20T09:37:21;23.10;;;15.00;;
9836;SDS011;4957;51.412;6.724;2022-11-20T09:39:47;25.63;;;15.30;;
9836;SDS011;4957;51.412;6.724;2022-11-20T09:47:53;24.27;;;14.77;;
9836;SDS011;4957;51.412;6.724;2022-11-20T09:55:48;23.37;;;14.77;;
9836;SDS011;4957;51.412;6.724;2022-11-20T10:01:12;27.83;;;15.43;;
9836;SDS011;4957;51.412;6.724;2022-11-20T10:06:23;31.83;;;17.77;;
9836;SDS011;4957;51.412;6.724;2022-11-20T10:22:44;27.33;;;17.37;;
9836;SDS011;4957;51.412;6.724;2022-11-20T10:34:00;28.90;;;16.33;;
9836;SDS011;4957;51.412;6.724;2022-11-20T10:36:33;27.83;;;16.40;;
9836;SDS011;4957;51.412;6.724;2022-11-20T10:39:05;29.67;;;17.03;;
9836;SDS011;4957;51.412;6.724;2022-11-20T10:41:40;21.73;;;14.40;;
9836;SDS011;4957;51.412;6.724;2022-11-20T10:44:26;23.70;;;14.57;;
9836;SDS011;4957;51.412;6.724;2022-11-20T10:47:20;26.07;;;14.13;;
9836;SDS011;4957;51.412;6.724;2022-11-20T10:49:48;23.10;;;13.97;;
9836;SDS011;4957;51.412;6.724;2022-11-20T11:00:09;21.90;;;13.67;;
9836;SDS011;4957;51.412;6.724;2022-11-20T11:05:14;26.43;;;13.37;;
9836;SDS011;4957;51.412;6.724;2022-11-20T11:07:57;23.20;;;12.83;;
9836;SDS011;4957;51.412;6.724;2022-11-20T11:13:06;21.77;;;13.90;;
9836;SDS011;4957;51.412;6.724;2022-11-20T11:15:38;25.80;;;14.80;;
9836;SDS011;4957;51.412;6.724;2022-11-20T11:18:09;22.43;;;13.77;;
9836;SDS011;4957;51.412;6.724;2022-11-20T11:20:36;27.90;;;15.30;;
9836;SDS011;4957;51.412;6.724;2022-11-20T11:23:02;29.00;;;15.43;;
9836;SDS011;4957;51.412;6.724;2022-11-20T11:25:30;32.50;;;19.53;;
9836;SDS011;4957;51.412;6.724;2022-11-20T11:28:03;30.03;;;18.03;;
9836;SDS011;4957;51.412;6.724;2022-11-20T11:30:30;27.77;;;15.20;;
9836;SDS011;4957;51.412;6.724;2022-11-20T11:33:09;24.37;;;14.90;;
9836;SDS011;4957;51.412;6.724;2022-11-20T11:35:50;26.67;;;15.43;;
9836;SDS011;4957;51.412;6.724;2022-11-20T11:38:37;23.87;;;14.27;;
9836;SDS011;4957;51.412;6.724;2022-11-20T11:41:05;26.83;;;14.47;;
9836;SDS011;4957;51.412;6.724;2022-11-20T11:43:35;22.90;;;13.43;;
9836;SDS011;4957;51.412;6.724;2022-11-20T11:51:28;23.50;;;13.80;;
9836;SDS011;4957;51.412;6.724;2022-11-20T11:54:02;25.10;;;13.63;;
9836;SDS011;4957;51.412;6.724;2022-11-20T11:56:38;28.27;;;14.40;;
9836;SDS011;4957;51.412;6.724;2022-11-20T11:59:04;28.37;;;15.47;;
9836;SDS011;4957;51.412;6.724;2022-11-20T12:07:20;23.60;;;13.30;;
9836;SDS011;4957;51.412;6.724;2022-11-20T12:10:00;22.83;;;12.27;;
9836;SDS011;4957;51.412;6.724;2022-11-20T12:12:31;22.37;;;12.70;;
9836;SDS011;4957;51.412;6.724;2022-11-20T12:15:04;24.33;;;12.97;;
9836;SDS011;4957;51.412;6.724;2022-11-20T12:17:35;27.57;;;14.27;;
9836;SDS011;4957;51.412;6.724;2022-11-20T12:20:01;26.70;;;13.57;;
9836;SDS011;4957;51.412;6.724;2022-11-20T12:22:36;23.03;;;13.37;;
9836;SDS011;4957;51.412;6.724;2022-11-20T12:25:20;22.63;;;13.83;;
9836;SDS011;4957;51.412;6.724;2022-11-20T12:28:02;24.07;;;13.63;;
9836;SDS011;4957;51.412;6.724;2022-11-20T12:31:03;26.97;;;13.63;;
9836;SDS011;4957;51.412;6.724;2022-11-20T12:33:49;24.57;;;13.87;;
9836;SDS011;4957;51.412;6.724;2022-11-20T12:36:39;25.83;;;13.33;;
9836;SDS011;4957;51.412;6.724;2022-11-20T13:07:09;23.63;;;13.00;;
9836;SDS011;4957;51.412;6.724;2022-11-20T13:09:43;25.07;;;14.03;;
9836;SDS011;4957;51.412;6.724;2022-11-20T13:12:14;22.40;;;14.00;;
9836;SDS011;4957;51.412;6.724;2022-11-20T13:14:55;22.43;;;13.57;;
9836;SDS011;4957;51.412;6.724;2022-11-20T13:17:43;27.00;;;14.40;;
9836;SDS011;4957;51.412;6.724;2022-11-20T13:20:15;23.23;;;13.60;;
9836;SDS011;4957;51.412;6.724;2022-11-20T13:22:43;20.93;;;12.73;;
9836;SDS011;4957;51.412;6.724;2022-11-20T13:30:34;23.47;;;14.03;;
9836;SDS011;4957;51.412;6.724;2022-11-20T13:33:09;22.30;;;13.33;;
9836;SDS011;4957;51.412;6.724;2022-11-20T13:38:46;25.67;;;13.93;;
9836;SDS011;4957;51.412;6.724;2022-11-20T13:41:30;23.27;;;14.03;;
9836;SDS011;4957;51.412;6.724;2022-11-20T13:46:38;25.40;;;14.93;;
9836;SDS011;4957;51.412;6.724;2022-11-20T13:57:50;26.60;;;14.80;;
9836;SDS011;4957;51.412;6.724;2022-11-20T14:00:25;26.33;;;15.73;;
9836;SDS011;4957;51.412;6.724;2022-11-20T14:05:25;24.23;;;14.30;;
9836;SDS011;4957;51.412;6.724;2022-11-20T14:07:51;30.03;;;15.60;;
9836;SDS011;4957;51.412;6.724;2022-11-20T14:10:19;29.80;;;16.63;;
9836;SDS011;4957;51.412;6.724;2022-11-20T14:12:51;28.67;;;16.33;;
9836;SDS011;4957;51.412;6.724;2022-11-20T14:15:30;24.30;;;13.60;;
9836;SDS011;4957;51.412;6.724;2022-11-20T14:17:58;25.77;;;15.37;;
9836;SDS011;4957;51.412;6.724;2022-11-20T14:20:26;27.47;;;15.93;;
9836;SDS011;4957;51.412;6.724;2022-11-20T14:22:54;26.50;;;15.13;;
9836;SDS011;4957;51.412;6.724;2022-11-20T14:25:24;24.33;;;14.90;;
9836;SDS011;4957;51.412;6.724;2022-11-20T14:27:57;30.47;;;16.27;;
9836;SDS011;4957;51.412;6.724;2022-11-20T14:30:27;29.40;;;15.67;;
9836;SDS011;4957;51.412;6.724;2022-11-20T14:33:01;30.33;;;17.10;;
9836;SDS011;4957;51.412;6.724;2022-11-20T14:35:29;31.33;;;16.67;;
9836;SDS011;4957;51.412;6.724;2022-11-20T14:37:56;29.57;;;16.17;;
9836;SDS011;4957;51.412;6.724;2022-11-20T14:43:02;28.37;;;16.60;;
9836;SDS011;4957;51.412;6.724;2022-11-20T14:45:48;26.87;;;15.37;;
9836;SDS011;4957;51.412;6.724;2022-11-20T14:48:22;28.43;;;16.40;;
9836;SDS011;4957;51.412;6.724;2022-11-20T14:50:53;28.87;;;16.00;;
9836;SDS011;4957;51.412;6.724;2022-11-20T14:53:22;31.43;;;16.33;;
9836;SDS011;4957;51.412;6.724;2022-11-20T14:55:54;30.10;;;16.07;;
9836;SDS011;4957;51.412;6.724;2022-11-20T14:58:22;26.40;;;14.20;;
9836;SDS011;4957;51.412;6.724;2022-11-20T15:00:57;29.67;;;16.13;;
9836;SDS011;4957;51.412;6.724;2022-11-20T15:03:35;31.93;;;16.80;;
9836;SDS011;4957;51.412;6.724;2022-11-20T15:06:02;25.60;;;14.70;;
9836;SDS011;4957;51.412;6.724;2022-11-20T15:08:30;28.20;;;15.87;;
9836;SDS011;4957;51.412;6.724;2022-11-20T15:10:56;27.63;;;15.47;;
9836;SDS011;4957;51.412;6.724;2022-11-20T15:13:32;32.73;;;17.33;;
9836;SDS011;4957;51.412;6.724;2022-11-20T15:16:01;30.57;;;16.60;;
9836;SDS011;4957;51.412;6.724;2022-11-20T15:18:29;30.63;;;16.20;;
9836;SDS011;4957;51.412;6.724;2022-11-20T15:20:58;29.03;;;16.03;;
9836;SDS011;4957;51.412;6.724;2022-11-20T15:23:28;31.03;;;17.17;;
9836;SDS011;4957;51.412;6.724;2022-11-20T15:25:54;31.93;;;16.87;;
9836;SDS011;4957;51.412;6.724;2022-11-20T15:30:49;34.77;;;17.23;;
9836;SDS011;4957;51.412;6.724;2022-11-20T15:33:15;33.10;;;16.87;;
9836;SDS011;4957;51.412;6.724;2022-11-20T15:35:42;43.87;;;18.27;;
9836;SDS011;4957;51.412;6.724;2022-11-20T15:38:08;31.17;;;16.23;;
9836;SDS011;4957;51.412;6.724;2022-11-20T15:40:34;34.33;;;18.13;;
9836;SDS011;4957;51.412;6.724;2022-11-20T15:42:59;37.33;;;17.40;;
9836;SDS011;4957;51.412;6.724;2022-11-20T15:45:38;36.27;;;17.63;;
9836;SDS011;4957;51.412;6.724;2022-11-20T15:48:11;34.17;;;18.17;;
9836;SDS011;4957;51.412;6.724;2022-11-20T15:50:46;33.07;;;17.60;;
9836;SDS011;4957;51.412;6.724;2022-11-20T15:53:14;34.30;;;18.00;;
9836;SDS011;4957;51.412;6.724;2022-11-20T15:55:39;35.17;;;17.40;;
9836;SDS011;4957;51.412;6.724;2022-11-20T15:58:05;36.87;;;17.83;;
9836;SDS011;4957;51.412;6.724;2022-11-20T16:00:31;37.47;;;17.33;;
9836;SDS011;4957;51.412;6.724;2022-11-20T16:02:56;35.87;;;18.43;;
9836;SDS011;4957;51.412;6.724;2022-11-20T16:05:22;38.20;;;18.17;;
9836;SDS011;4957;51.412;6.724;2022-11-20T16:07:51;36.40;;;17.60;;
9836;SDS011;4957;51.412;6.724;2022-11-20T16:10:16;36.73;;;16.43;;
9836;SDS011;4957;51.412;6.724;2022-11-20T16:12:42;36.17;;;17.40;;
9836;SDS011;4957;51.412;6.724;2022-11-20T16:15:27;32.90;;;17.50;;
9836;SDS011;4957;51.412;6.724;2022-11-20T16:18:16;34.73;;;17.37;;
9836;SDS011;4957;51.412;6.724;2022-11-20T16:20:43;40.40;;;18.77;;
9836;SDS011;4957;51.412;6.724;2022-11-20T16:23:10;44.03;;;17.27;;
9836;SDS011;4957;51.412;6.724;2022-11-20T16:25:36;31.57;;;16.60;;
9836;SDS011;4957;51.412;6.724;2022-11-20T16:28:02;43.17;;;16.80;;
9836;SDS011;4957;51.412;6.724;2022-11-20T16:30:28;39.17;;;16.30;;
9836;SDS011;4957;51.412;6.724;2022-11-20T16:32:53;39.93;;;18.07;;
9836;SDS011;4957;51.412;6.724;2022-11-20T16:35:19;37.00;;;17.40;;
9836;SDS011;4957;51.412;6.724;2022-11-20T16:37:45;39.97;;;18.00;;
9836;SDS011;4957;51.412;6.724;2022-11-20T16:40:11;37.23;;;18.70;;
9836;SDS011;4957;51.412;6.724;2022-11-20T16:42:36;35.13;;;17.27;;
9836;SDS011;4957;51.412;6.724;2022-11-20T16:45:03;31.83;;;16.83;;
9836;SDS011;4957;51.412;6.724;2022-11-20T16:47:33;32.40;;;17.30;;
9836;SDS011;4957;51.412;6.724;2022-11-20T16:49:59;41.73;;;17.77;;
9836;SDS011;4957;51.412;6.724;2022-11-20T16:52:29;39.13;;;17.40;;
9836;SDS011;4957;51.412;6.724;2022-11-20T16:54:55;29.67;;;15.53;;
9836;SDS011;4957;51.412;6.724;2022-11-20T16:57:21;32.07;;;15.67;;
9836;SDS011;4957;51.412;6.724;2022-11-20T16:59:47;32.23;;;15.90;;
9836;SDS011;4957;51.412;6.724;2022-11-20T17:02:13;32.77;;;15.37;;
9836;SDS011;4957;51.412;6.724;2022-11-20T17:04:39;32.77;;;15.87;;